createdAt,value
2022-09-25T00:01:52.482Z,99891.56
2022-09-25T00:04:19.858Z,99887.34
2022-09-25T00:06:47.817Z,99888.50
2022-09-25T00:09:15.097Z,99881.38
2022-09-25T00:11:42.392Z,99888.09
2022-09-25T00:14:10.028Z,99888.06
2022-09-25T00:16:38.785Z,99881.69
2022-09-25T00:19:06.152Z,99878.41
2022-09-25T00:21:36.065Z,99881.56
2022-09-25T00:24:05.229Z,99889.75
2022-09-25T00:26:35.610Z,99889.16
2022-09-25T00:29:05.002Z,99882.31
2022-09-25T00:31:33.152Z,99885.16
2022-09-25T00:34:03.728Z,99888.50
2022-09-25T00:36:32.612Z,99882.94
2022-09-25T00:39:00.011Z,99875.19
2022-09-25T00:41:29.114Z,99874.28
2022-09-25T00:43:57.894Z,99872.63
2022-09-25T00:46:29.765Z,99873.59
2022-09-25T00:49:02.475Z,99866.56
2022-09-25T00:51:35.075Z,99868.91
2022-09-25T00:54:04.866Z,99862.00
2022-09-25T00:56:37.794Z,99863.47
2022-09-25T00:59:05.451Z,99859.78
2022-09-25T01:01:32.769Z,99858.75
2022-09-25T01:04:02.817Z,99853.63
2022-09-25T01:06:31.646Z,99859.41
2022-09-25T01:08:59.578Z,99854.00
2022-09-25T01:11:27.290Z,99856.41
2022-09-25T01:13:57.120Z,99859.94
2022-09-25T01:16:31.925Z,99860.44
2022-09-25T01:19:13.469Z,99859.75
2022-09-25T01:21:44.722Z,99861.59
2022-09-25T01:24:32.034Z,99866.44
2022-09-25T01:27:30.903Z,99862.81
2022-09-25T01:30:06.087Z,99862.81
2022-09-25T01:32:39.251Z,99862.81
2022-09-25T01:35:15.600Z,99855.28
2022-09-25T01:37:45.581Z,99855.38
2022-09-25T01:40:20.537Z,99852.91
2022-09-25T01:42:52.252Z,99856.13
2022-09-25T01:45:25.918Z,99862.53
2022-09-25T01:47:53.515Z,99865.66
2022-09-25T01:50:26.735Z,99862.44
2022-09-25T01:53:00.254Z,99860.97
2022-09-25T01:55:32.625Z,99853.66
2022-09-25T01:58:07.934Z,99861.88
2022-09-25T02:00:40.052Z,99867.44
2022-09-25T02:03:12.403Z,99865.81
2022-09-25T02:05:45.343Z,99873.75
2022-09-25T02:08:14.473Z,99867.03
2022-09-25T02:10:45.642Z,99867.91
2022-09-25T02:13:15.843Z,99855.44
2022-09-25T02:15:50.525Z,99863.03
2022-09-25T02:18:19.479Z,99866.38
2022-09-25T02:20:50.361Z,99868.03
2022-09-25T02:23:21.477Z,99865.56
2022-09-25T02:25:56.203Z,99860.94
2022-09-25T02:28:23.838Z,99864.44
2022-09-25T02:30:56.986Z,99855.63
2022-09-25T02:33:24.875Z,99857.31
2022-09-25T02:35:52.775Z,99849.22
2022-09-25T02:38:21.205Z,99849.91
2022-09-25T02:40:56.311Z,99850.56
2022-09-25T02:43:37.609Z,99853.84
2022-09-25T02:46:14.006Z,99850.63
2022-09-25T02:48:50.186Z,99854.28
2022-09-25T02:51:23.558Z,99852.72
2022-09-25T02:54:01.456Z,99849.03
2022-09-25T02:56:33.160Z,99854.72
2022-09-25T02:59:04.491Z,99856.88
2022-09-25T03:01:36.805Z,99853.03
2022-09-25T03:04:05.809Z,99847.69
2022-09-25T03:06:33.267Z,99841.84
2022-09-25T03:09:03.174Z,99836.78
2022-09-25T03:11:31.242Z,99837.00
2022-09-25T03:14:00.133Z,99834.94
2022-09-25T03:16:36.481Z,99836.16
2022-09-25T03:19:04.144Z,99836.75
2022-09-25T03:21:31.395Z,99846.34
2022-09-25T03:23:59.513Z,99848.34
2022-09-25T03:26:27.576Z,99842.06
2022-09-25T03:28:55.164Z,99846.28
2022-09-25T03:31:22.666Z,99845.28
2022-09-25T03:33:51.802Z,99841.91
2022-09-25T03:36:21.483Z,99842.00
2022-09-25T03:38:50.829Z,99838.50
2022-09-25T03:41:20.132Z,99839.94
2022-09-25T03:43:50.855Z,99840.44
2022-09-25T03:46:20.723Z,99838.53
2022-09-25T03:48:48.698Z,99844.44
2022-09-25T03:51:17.345Z,99835.16
2022-09-25T03:53:45.215Z,99834.44
2022-09-25T03:56:14.646Z,99833.75
2022-09-25T03:58:42.130Z,99835.00
2022-09-25T04:01:10.057Z,99832.16
2022-09-25T04:03:38.088Z,99829.25
2022-09-25T04:06:07.967Z,99831.25
2022-09-25T04:08:37.212Z,99831.00
2022-09-25T04:11:05.419Z,99827.97
2022-09-25T04:13:34.041Z,99828.34
2022-09-25T04:16:03.300Z,99833.91
2022-09-25T04:18:31.266Z,99827.41
2022-09-25T04:20:58.779Z,99825.91
2022-09-25T04:23:26.086Z,99839.66
2022-09-25T04:25:55.056Z,99832.41
2022-09-25T04:28:22.813Z,99836.22
2022-09-25T04:30:50.722Z,99838.56
2022-09-25T04:33:18.900Z,99837.22
2022-09-25T04:35:46.545Z,99837.91
2022-09-25T04:38:13.895Z,99835.00
2022-09-25T04:40:41.965Z,99835.00
2022-09-25T04:43:10.627Z,99829.00
2022-09-25T04:45:38.212Z,99835.75
2022-09-25T04:48:06.133Z,99837.38
2022-09-25T04:50:34.239Z,99834.84
2022-09-25T04:53:02.157Z,99833.84
2022-09-25T04:55:30.372Z,99829.56
2022-09-25T04:57:59.641Z,99823.47
2022-09-25T05:00:30.727Z,99831.94
2022-09-25T05:02:58.819Z,99833.19
2022-09-25T05:05:26.445Z,99839.34
2022-09-25T05:07:54.960Z,99838.22
2022-09-25T05:10:23.167Z,99833.25
2022-09-25T05:12:55.186Z,99837.09
2022-09-25T05:15:22.532Z,99833.91
2022-09-25T05:17:59.865Z,99836.50
2022-09-25T05:20:27.218Z,99837.28
2022-09-25T05:22:55.451Z,99839.00
2022-09-25T05:25:23.011Z,99835.78
2022-09-25T05:27:50.211Z,99840.25
2022-09-25T05:30:17.769Z,99835.72
2022-09-25T05:32:48.614Z,99839.75
2022-09-25T05:35:18.023Z,99838.00
2022-09-25T05:37:45.721Z,99835.22
2022-09-25T05:40:13.913Z,99832.94
2022-09-25T05:42:41.437Z,99834.47
2022-09-25T05:45:10.375Z,99833.44
2022-09-25T05:47:37.625Z,99836.59
2022-09-25T05:50:05.968Z,99836.53
2022-09-25T05:52:36.264Z,99840.28
2022-09-25T05:55:04.011Z,99837.13
2022-09-25T05:57:31.332Z,99838.53
2022-09-25T05:59:59.020Z,99836.50
2022-09-25T06:02:26.425Z,99837.69
2022-09-25T06:04:54.063Z,99837.97
2022-09-25T06:10:09.412Z,99826.06
2022-09-25T06:12:37.366Z,99833.06
2022-09-25T06:15:06.707Z,99825.16
2022-09-25T06:17:34.022Z,99833.84
2022-09-25T06:20:01.824Z,99828.75
2022-09-25T06:22:29.194Z,99820.66
2022-09-25T06:24:56.473Z,99823.00
2022-09-25T06:27:25.684Z,99825.06
2022-09-25T06:29:52.907Z,99819.78
2022-09-25T06:32:20.126Z,99816.41
2022-09-25T06:34:47.515Z,99818.16
2022-09-25T06:37:14.771Z,99821.22
2022-09-25T06:39:42.019Z,99817.81
2022-09-25T06:42:09.604Z,99818.91
2022-09-25T06:44:38.244Z,99813.72
2022-09-25T06:47:05.504Z,99819.84
2022-09-25T06:49:33.382Z,99817.72
2022-09-25T06:52:00.887Z,99819.09
2022-09-25T06:54:30.334Z,99829.53
2022-09-25T06:56:57.907Z,99829.13
2022-09-25T06:59:25.248Z,99833.84
2022-09-25T07:01:54.093Z,99837.00
2022-09-25T07:04:21.743Z,99829.41
2022-09-25T07:06:49.047Z,99838.00
2022-09-25T07:09:16.217Z,99824.22
2022-09-25T07:11:43.817Z,99827.91
2022-09-25T07:14:11.235Z,99823.34
2022-09-25T07:16:38.450Z,99822.53
2022-09-25T07:19:07.365Z,99821.59
2022-09-25T07:21:34.646Z,99821.03
2022-09-25T07:24:03.992Z,99820.06
2022-09-25T07:26:31.638Z,99822.19
2022-09-25T07:29:00.799Z,99823.09
2022-09-25T07:31:29.975Z,99826.44
2022-09-25T07:33:58.037Z,99829.09
2022-09-25T07:36:26.697Z,99829.72
2022-09-25T07:38:54.305Z,99829.63
2022-09-25T07:41:23.144Z,99841.47
2022-09-25T07:44:06.237Z,99837.09
2022-09-25T07:46:39.483Z,99835.88
2022-09-25T07:49:06.730Z,99833.22
2022-09-25T07:51:35.377Z,99838.66
2022-09-25T07:54:02.932Z,99832.41
2022-09-25T07:56:30.164Z,99837.41
2022-09-25T07:58:57.458Z,99825.28
2022-09-25T08:01:25.011Z,99827.56
2022-09-25T08:03:52.281Z,99829.19
2022-09-25T08:06:19.451Z,99829.41
2022-09-25T08:08:48.402Z,99830.16
2022-09-25T08:11:17.153Z,99821.00
2022-09-25T08:13:45.259Z,99824.06
2022-09-25T08:16:14.124Z,99825.91
2022-09-25T08:18:42.960Z,99824.16
2022-09-25T08:21:11.381Z,99813.78
2022-09-25T08:23:38.940Z,99816.09
2022-09-25T08:26:07.985Z,99810.75
2022-09-25T08:28:35.478Z,99809.31
2022-09-25T08:31:03.546Z,99806.13
2022-09-25T08:33:31.290Z,99808.69
2022-09-25T08:36:00.412Z,99806.34
2022-09-25T08:38:28.715Z,99802.38
2022-09-25T08:40:59.624Z,99797.56
2022-09-25T08:43:28.703Z,99799.84
2022-09-25T08:45:59.084Z,99794.41
2022-09-25T08:48:32.109Z,99793.63
2022-09-25T08:51:00.839Z,99793.38
2022-09-25T08:53:28.048Z,99793.59
2022-09-25T08:55:55.796Z,99779.31
2022-09-25T08:58:26.336Z,99785.00
2022-09-25T09:00:58.496Z,99787.97
2022-09-25T09:03:27.054Z,99787.47
2022-09-25T09:05:59.120Z,99781.44
2022-09-25T09:08:29.292Z,99773.47
2022-09-25T09:11:02.289Z,99780.19
2022-09-25T09:13:37.002Z,99772.41
2022-09-25T09:16:10.204Z,99771.00
2022-09-25T09:18:39.550Z,99776.22
2022-09-25T09:21:13.726Z,99774.34
2022-09-25T09:23:56.691Z,99772.53
2022-09-25T09:26:33.344Z,99764.13
2022-09-25T09:29:16.530Z,99765.91
2022-09-25T09:31:55.054Z,99769.81
2022-09-25T09:35:00.948Z,99766.63
2022-09-25T09:37:29.931Z,99760.06
2022-09-25T09:40:09.002Z,99758.88
2022-09-25T09:42:45.586Z,99764.00
2022-09-25T09:45:20.950Z,99761.44
2022-09-25T09:47:58.658Z,99758.88
2022-09-25T09:50:38.983Z,99756.03
2022-09-25T09:53:17.493Z,99746.78
2022-09-25T09:55:48.625Z,99745.16
2022-09-25T09:58:23.270Z,99743.34
2022-09-25T10:00:51.790Z,99749.19
2022-09-25T10:03:24.854Z,99747.28
2022-09-25T10:05:56.770Z,99742.06
2022-09-25T10:08:24.175Z,99746.38
2022-09-25T10:10:53.080Z,99740.28
2022-09-25T10:13:24.333Z,99732.94
2022-09-25T10:15:57.170Z,99726.91
2022-09-25T10:18:31.382Z,99723.34
2022-09-25T10:21:04.162Z,99729.25
2022-09-25T10:23:37.846Z,99723.59
2022-09-25T10:26:23.736Z,99716.56
2022-09-25T10:28:52.396Z,99725.88
2022-09-25T10:31:20.855Z,99719.31
2022-09-25T10:34:01.380Z,99723.53
2022-09-25T10:36:39.135Z,99716.28
2022-09-25T10:39:43.699Z,99711.16
2022-09-25T10:42:32.140Z,99709.28
2022-09-25T10:44:59.722Z,99713.09
2022-09-25T10:47:31.019Z,99706.75
2022-09-25T10:50:09.871Z,99700.66
2022-09-25T10:52:48.782Z,99705.72
2022-09-25T10:55:22.905Z,99706.31
2022-09-25T10:57:58.996Z,99703.13
2022-09-25T11:00:27.328Z,99697.94
2022-09-25T11:02:57.761Z,99697.13
2022-09-25T11:05:29.829Z,99692.31
2022-09-25T11:07:58.755Z,99683.09
2022-09-25T11:10:29.768Z,99683.94
2022-09-25T11:12:58.282Z,99686.47
2022-09-25T11:15:27.744Z,99689.28
2022-09-25T11:17:56.431Z,99692.09
2022-09-25T11:20:28.644Z,99693.47
2022-09-25T11:23:06.110Z,99691.44
2022-09-25T11:25:41.302Z,99695.59
2022-09-25T11:28:17.114Z,99699.16
2022-09-25T11:30:58.234Z,99697.91
2022-09-25T11:33:37.730Z,99695.25
2022-09-25T11:36:12.252Z,99694.56
2022-09-25T11:38:43.408Z,99681.38
2022-09-25T11:41:16.337Z,99681.41
2022-09-25T11:43:57.868Z,99683.03
2022-09-25T11:46:33.944Z,99678.63
2022-09-25T11:49:12.364Z,99680.25
2022-09-25T11:52:03.399Z,99672.16
2022-09-25T11:54:40.291Z,99668.78
2022-09-25T11:57:13.728Z,99674.22
2022-09-25T11:59:56.209Z,99670.38
2022-09-25T12:02:32.049Z,99664.28
2022-09-25T12:05:21.047Z,99667.78
2022-09-25T12:08:17.646Z,99658.50
2022-09-25T12:10:54.661Z,99655.09
2022-09-25T12:13:31.957Z,99660.38
2022-09-25T12:16:11.557Z,99647.16
2022-09-25T12:18:53.666Z,99648.78
2022-09-25T12:21:27.856Z,99647.25
2022-09-25T12:24:02.582Z,99640.16
2022-09-25T12:26:36.432Z,99642.66
2022-09-25T12:29:21.286Z,99636.97
2022-09-25T12:31:58.516Z,99627.50
2022-09-25T12:34:40.455Z,99631.94
2022-09-25T12:37:19.047Z,99632.31
2022-09-25T12:39:52.456Z,99633.91
2022-09-25T12:42:27.238Z,99639.91
2022-09-25T12:44:59.893Z,99638.91
2022-09-25T12:47:31.744Z,99629.81
2022-09-25T12:50:03.912Z,99629.50
2022-09-25T12:52:40.993Z,99628.63
2022-09-25T12:55:22.538Z,99633.41
2022-09-25T12:58:01.463Z,99635.84
2022-09-25T13:00:33.643Z,99630.22
2022-09-25T13:03:08.737Z,99630.41
2022-09-25T13:05:40.510Z,99622.47
2022-09-25T13:08:14.083Z,99622.25
2022-09-25T13:10:49.144Z,99618.53
2022-09-25T13:13:20.810Z,99616.09
2022-09-25T13:15:51.235Z,99620.75
2022-09-25T13:18:20.989Z,99620.47
2022-09-25T13:20:52.888Z,99616.34
2022-09-25T13:23:33.986Z,99610.19
2022-09-25T13:26:10.628Z,99607.13
2022-09-25T13:28:40.980Z,99604.63
2022-09-25T13:31:12.254Z,99603.06
2022-09-25T13:33:47.823Z,99610.19
2022-09-25T13:36:29.375Z,99603.66
2022-09-25T13:39:01.598Z,99604.00
2022-09-25T13:41:31.162Z,99606.97
2022-09-25T13:44:52.381Z,99608.59
2022-09-25T13:48:06.083Z,99603.13
2022-09-25T13:50:37.366Z,99599.84
2022-09-25T13:53:19.882Z,99595.75
2022-09-25T13:56:27.052Z,99593.50
2022-09-25T13:59:35.124Z,99593.53
2022-09-25T14:02:35.925Z,99584.38
2022-09-25T14:05:04.671Z,99590.09
2022-09-25T14:07:32.952Z,99585.69
2022-09-25T14:10:01.349Z,99596.34
2022-09-25T14:12:38.855Z,99588.66
2022-09-25T14:15:14.640Z,99581.50
2022-09-25T14:17:43.691Z,99580.97
2022-09-25T14:20:27.297Z,99582.25
2022-09-25T14:22:57.469Z,99585.50
2022-09-25T14:25:28.176Z,99586.94
2022-09-25T14:27:55.505Z,99584.94
2022-09-25T14:30:27.391Z,99578.34
2022-09-25T14:33:10.650Z,99578.97
2022-09-25T14:35:45.514Z,99574.47
2022-09-25T14:38:30.081Z,99576.81
2022-09-25T14:41:13.823Z,99562.28
2022-09-25T14:43:55.353Z,99569.94
2022-09-25T14:46:24.244Z,99564.16
2022-09-25T14:48:54.838Z,99559.78
2022-09-25T14:51:26.208Z,99559.50
2022-09-25T14:53:57.462Z,99563.06
2022-09-25T14:56:26.242Z,99553.13
2022-09-25T14:58:57.948Z,99548.56
2022-09-25T15:01:29.703Z,99552.97
2022-09-25T15:04:01.630Z,99547.16
2022-09-25T15:06:31.333Z,99549.25
2022-09-25T15:08:59.573Z,99545.38
2022-09-25T15:11:27.938Z,99544.03
2022-09-25T15:14:08.853Z,99542.25
2022-09-25T15:16:38.763Z,99543.09
2022-09-25T15:19:14.821Z,99537.16
2022-09-25T15:21:43.944Z,99541.25
2022-09-25T15:24:15.934Z,99532.78
2022-09-25T15:26:46.162Z,99528.78
2022-09-25T15:29:17.253Z,99525.69
2022-09-25T15:31:46.895Z,99532.50
2022-09-25T15:34:14.754Z,99530.88
2022-09-25T15:36:42.116Z,99539.97
2022-09-25T15:39:14.927Z,99531.94
2022-09-25T15:41:43.282Z,99527.47
2022-09-25T15:44:19.424Z,99527.09
2022-09-25T15:46:50.766Z,99525.94
2022-09-25T15:49:21.292Z,99524.44
2022-09-25T15:51:56.687Z,99530.91
2022-09-25T15:54:36.848Z,99525.84
2022-09-25T15:57:08.263Z,99522.78
2022-09-25T15:59:40.038Z,99528.34
2022-09-25T16:02:18.570Z,99528.44
2022-09-25T16:04:51.477Z,99519.44
2022-09-25T16:07:28.775Z,99524.28
2022-09-25T16:09:57.524Z,99523.38
2022-09-25T16:12:32.650Z,99518.00
2022-09-25T16:15:23.292Z,99515.91
2022-09-25T16:17:53.511Z,99517.25
2022-09-25T16:20:31.377Z,99517.03
2022-09-25T16:23:01.899Z,99516.78
2022-09-25T16:25:32.054Z,99514.44
2022-09-25T16:28:03.979Z,99507.09
2022-09-25T16:30:31.880Z,99506.41
2022-09-25T16:33:07.664Z,99511.38
2022-09-25T16:36:04.612Z,99504.19
2022-09-25T16:38:29.750Z,99510.31
2022-09-25T16:41:03.441Z,99518.34
2022-09-25T16:43:31.103Z,99522.28
2022-09-25T16:46:00.445Z,99520.84
2022-09-25T16:48:34.930Z,99520.25
2022-09-25T16:51:04.640Z,99521.53
2022-09-25T16:53:32.904Z,99522.22
2022-09-25T16:56:00.945Z,99527.44
2022-09-25T16:58:28.982Z,99525.91
2022-09-25T17:00:56.736Z,99532.66
2022-09-25T17:03:24.409Z,99525.47
2022-09-25T17:05:54.193Z,99524.75
2022-09-25T17:08:22.937Z,99524.41
2022-09-25T17:10:52.592Z,99521.03
2022-09-25T17:13:26.592Z,99517.59
2022-09-25T17:15:54.243Z,99518.09
2022-09-25T17:18:22.691Z,99515.31
2022-09-25T17:20:51.563Z,99516.41
2022-09-25T17:23:22.354Z,99512.22
2022-09-25T17:25:52.860Z,99510.03
2022-09-25T17:28:20.354Z,99510.66
2022-09-25T17:30:48.596Z,99509.22
2022-09-25T17:33:18.944Z,99510.84
2022-09-25T17:35:50.471Z,99514.25
2022-09-25T17:38:18.034Z,99506.38
2022-09-25T17:40:50.552Z,99516.59
2022-09-25T17:43:18.551Z,99514.94
2022-09-25T17:45:48.133Z,99516.00
2022-09-25T17:48:15.682Z,99516.16
2022-09-25T17:50:45.501Z,99513.81
2022-09-25T17:53:17.509Z,99511.56
2022-09-25T17:55:51.221Z,99513.38
2022-09-25T17:58:22.396Z,99515.38
2022-09-25T18:00:50.820Z,99520.78
2022-09-25T18:03:18.830Z,99518.56
2022-09-25T18:05:47.464Z,99517.66
2022-09-25T18:08:15.184Z,99526.00
2022-09-25T18:10:42.532Z,99517.91
2022-09-25T18:13:14.080Z,99513.84
2022-09-25T18:15:46.932Z,99516.16
2022-09-25T18:18:14.723Z,99515.81
2022-09-25T18:20:42.029Z,99506.47
2022-09-25T18:23:09.277Z,99512.28
2022-09-25T18:25:40.280Z,99511.16
2022-09-25T18:28:08.305Z,99501.16
2022-09-25T18:30:37.201Z,99505.06
2022-09-25T18:33:04.897Z,99501.00
2022-09-25T18:35:32.325Z,99507.44
2022-09-25T18:37:59.937Z,99506.28
2022-09-25T18:40:28.074Z,99511.75
2022-09-25T18:42:55.418Z,99514.66
2022-09-25T18:45:22.821Z,99525.13
2022-09-25T18:47:51.950Z,99521.34
2022-09-25T18:50:20.926Z,99526.09
2022-09-25T18:52:48.377Z,99533.03
2022-09-25T18:55:16.003Z,99527.94
2022-09-25T18:57:43.815Z,99525.22
2022-09-25T19:00:12.181Z,99524.75
2022-09-25T19:02:39.927Z,99524.69
2022-09-25T19:05:09.735Z,99525.88
2022-09-25T19:07:37.616Z,99522.03
2022-09-25T19:10:06.522Z,99524.22
2022-09-25T19:12:34.122Z,99517.84
2022-09-25T19:15:01.952Z,99515.66
2022-09-25T19:17:29.550Z,99513.72
2022-09-25T19:19:56.989Z,99521.03
2022-09-25T19:22:25.981Z,99523.38
2022-09-25T19:24:53.244Z,99512.94
2022-09-25T19:27:20.747Z,99511.94
2022-09-25T19:29:48.724Z,99512.53
2022-09-25T19:32:17.923Z,99501.38
2022-09-25T19:34:45.259Z,99506.50
2022-09-25T19:37:13.525Z,99505.84
2022-09-25T19:39:42.136Z,99499.06
2022-09-25T19:42:09.417Z,99498.31
2022-09-25T19:44:37.032Z,99497.31
2022-09-25T19:47:04.423Z,99488.09
2022-09-25T19:49:31.662Z,99501.59
2022-09-25T19:51:59.291Z,99488.88
2022-09-25T19:54:26.545Z,99490.44
2022-09-25T19:56:55.452Z,99485.75
2022-09-25T19:59:23.062Z,99490.59
2022-09-25T20:01:50.410Z,99484.31
2022-09-25T20:04:19.146Z,99484.69
2022-09-25T20:06:47.904Z,99479.78
2022-09-25T20:09:15.254Z,99481.00
2022-09-25T20:11:43.359Z,99487.78
2022-09-25T20:14:12.387Z,99484.00
2022-09-25T20:16:39.769Z,99484.94
2022-09-25T20:19:08.010Z,99480.50
2022-09-25T20:21:38.159Z,99477.75
2022-09-25T20:24:07.729Z,99481.22
2022-09-25T20:26:35.422Z,99477.50
2022-09-25T20:29:05.714Z,99477.81
2022-09-25T20:31:35.303Z,99472.41
2022-09-25T20:34:02.564Z,99467.22
2022-09-25T20:36:30.220Z,99468.63
2022-09-25T20:38:58.036Z,99464.97
2022-09-25T20:41:26.538Z,99468.44
2022-09-25T20:43:56.695Z,99469.28
2022-09-25T20:46:25.305Z,99468.59
2022-09-25T20:48:56.651Z,99470.94
2022-09-25T20:51:26.536Z,99467.28
2022-09-25T20:53:56.612Z,99469.94
2022-09-25T20:56:24.540Z,99466.88
2022-09-25T20:58:53.758Z,99461.50
2022-09-25T21:01:25.247Z,99468.19
2022-09-25T21:03:54.836Z,99464.59
2022-09-25T21:06:24.973Z,99458.44
2022-09-25T21:08:53.185Z,99459.03
2022-09-25T21:11:21.228Z,99453.56
2022-09-25T21:13:49.961Z,99461.72
2022-09-25T21:16:18.050Z,99463.59
2022-09-25T21:18:50.535Z,99462.38
2022-09-25T21:21:19.094Z,99459.75
2022-09-25T21:23:48.798Z,99457.69
2022-09-25T21:26:16.626Z,99454.84
2022-09-25T21:28:46.294Z,99459.25
2022-09-25T21:31:15.925Z,99448.53
2022-09-25T21:33:44.054Z,99447.63
2022-09-25T21:36:12.869Z,99448.88
2022-09-25T21:38:42.499Z,99453.13
2022-09-25T21:41:12.620Z,99450.66
2022-09-25T21:43:40.421Z,99445.69
2022-09-25T21:46:11.632Z,99448.94
2022-09-25T21:48:40.835Z,99452.91
2022-09-25T21:51:08.670Z,99444.53
2022-09-25T21:53:36.277Z,99446.63
2022-09-25T21:56:07.271Z,99437.88
2022-09-25T21:58:35.547Z,99432.56
2022-09-25T22:01:05.144Z,99430.94
2022-09-25T22:03:33.749Z,99425.75
2022-09-25T22:06:02.031Z,99425.81
2022-09-25T22:08:30.569Z,99415.22
2022-09-25T22:10:58.225Z,99420.63
2022-09-25T22:13:28.981Z,99423.75
2022-09-25T22:16:00.977Z,99423.97
2022-09-25T22:18:28.984Z,99413.97
2022-09-25T22:20:56.346Z,99410.28
2022-09-25T22:23:24.940Z,99416.88
2022-09-25T22:25:52.831Z,99410.66
2022-09-25T22:28:21.169Z,99414.19
2022-09-25T22:30:50.345Z,99407.75
2022-09-25T22:33:17.946Z,99407.72
2022-09-25T22:35:45.384Z,99408.91
2022-09-25T22:38:13.007Z,99412.00
2022-09-25T22:40:40.605Z,99411.22
2022-09-25T22:43:08.024Z,99410.78
2022-09-25T22:45:35.564Z,99411.84
2022-09-25T22:48:04.341Z,99404.75
2022-09-25T22:50:31.540Z,99399.78
2022-09-25T22:52:59.152Z,99411.00
2022-09-25T22:55:26.529Z,99405.50
2022-09-25T22:57:54.035Z,99401.78
2022-09-25T23:00:21.556Z,99396.41
2022-09-25T23:02:48.786Z,99397.41
2022-09-25T23:05:19.401Z,99395.56
2022-09-25T23:07:48.489Z,99393.28
2022-09-25T23:10:15.829Z,99381.66
2022-09-25T23:12:45.029Z,99378.66
2022-09-25T23:15:12.658Z,99381.19
2022-09-25T23:20:26.800Z,99379.53
2022-09-25T23:22:56.031Z,99377.69
2022-09-25T23:25:23.394Z,99383.13
2022-09-25T23:27:51.270Z,99388.44
2022-09-25T23:30:20.428Z,99377.09
2022-09-25T23:32:47.663Z,99374.72
2022-09-25T23:35:15.307Z,99381.38
2022-09-25T23:37:43.894Z,99377.47
2022-09-25T23:40:15.357Z,99373.91
2022-09-25T23:42:43.413Z,99370.72
2022-09-25T23:45:11.586Z,99371.88
2022-09-25T23:47:39.031Z,99369.63
2022-09-25T23:50:07.672Z,99367.03
2022-09-25T23:52:34.989Z,99359.56
2022-09-25T23:55:04.266Z,99363.97
2022-09-25T23:57:31.861Z,99360.03
2022-09-25T23:59:59.101Z,99362.34
